Stevensville, MD (21666)

1:00 PM EDT on March 25, 2017 (GMT -0400)
Castle Marina | | Change Station

Elev 16 ft 38.98 °N, 76.28 °W | Updated 1 second ago

Haze
Haze
79.1 °F
Feels Like 79 °F
N
4.0
Wind Variable Wind from South

Today
High -- | Low -- °F
--% Chance of Precip.
Yesterday
High -- | Low -- °F
Precip. -- in
Pressure 30.17 in
Visibility 7.0 miles
Clouds Clear
Heat Index 79 °F
Dew Point 53 °F
Humidity 40%
Rainfall 0.00 in
Snow Depth Not available.
7:00 AM 7:22 PM
Waning Crescent, 7% visible
METAR KW29 251635Z AUTO 15008KT 7SM HZ CLR 22/11 A3017 RMK AO2 TSNO
Pressure 30.17 in
Visibility 7.0 miles
Clouds Clear
Heat Index 79 °F
Dew Point 53 °F
Humidity 40%
Rainfall 0.00 in
Snow Depth Not available.
7:00 AM 7:22 PM
Waning Crescent, 7% visible
METAR KW29 251635Z AUTO 15008KT 7SM HZ CLR 22/11 A3017 RMK AO2 TSNO

Get Severe Weather Alerts

Thanks for signing up!

Be on the lookout for a verification email in your inbox.

You'll start receiving the daily forecast at 8 AM.

×

10-Day Weather Forecast

Almanac

Astronomy

Mar. 25, 2017 Rise Set
Actual Time
Civil Twilight
Nautical Twilight
Astronomical Twilight
Moon
Length of Visible Light
Length of Day
Tomorrow will be .
, % of the Moon is Illuminated

Today's Extremes

State Highs State Lows

Community

WunderPhotos

Upload Photos

1,962,540 photos uploaded!

WunderBlog® & News

Nearby

Air Quality

  Air Quality AQ Index Pollutant
Not available.

Snow Depth

Station Depth Elevation

Earthquake Activity

City Distance Mag. Time & Date
Minimum magnitude displayed is 2.5.

Earthquake Activity

City Distance Mag. Time & Date
Minimum magnitude displayed is 2.5.

Coastal Water Temperatures

Place Temperature

Stations

Nearby Weather Stations

Station Location Temp. Windchill Dew Point Humidity Wind Precip. Elev Updated Type
                   

Watches & Warnings

There are currently no watches in effect.